Time;durP1;ratioP1;P1;durP2;ratioP2;P2;SDS_P1;SDS_P2;PMS_P1;PMS_P2;Temp;Humidity;BMP_temperature;BMP_pressure;BME280_temperature;BME280_humidity;BME280_pressure;Samples;Min_cycle;Max_cycle;Signal;HPM_P1;HPM_P2
2022/05/11 00:02:25;;;;;;;7.60;4.38;;;14.70;99.90;;;;;;5088088;28;20052;-67
2022/05/11 00:04:51;;;;;;;7.63;4.10;;;14.70;99.90;;;;;;5087624;28;20040;-67
2022/05/11 00:07:16;;;;;;;6.97;4.50;;;14.80;99.90;;;;;;5086061;28;20083;-67
2022/05/11 00:09:42;;;;;;;10.18;4.57;;;14.70;99.90;;;;;;5087245;28;20071;-67
2022/05/11 00:12:08;;;;;;;6.38;4.68;;;14.60;99.90;;;;;;5087146;28;20110;-67
2022/05/11 00:14:34;;;;;;;7.07;4.32;;;14.70;99.90;;;;;;5088230;28;20049;-67
2022/05/11 00:17:00;;;;;;;8.50;4.32;;;14.60;99.90;;;;;;5088084;28;20369;-67
2022/05/11 00:19:27;;;;;;;8.63;4.30;;;14.60;99.90;;;;;;5087136;28;20079;-67
2022/05/11 00:21:53;;;;;;;6.43;4.55;;;14.60;99.90;;;;;;5085265;28;20048;-67
2022/05/11 00:24:19;;;;;;;6.50;3.83;;;14.60;99.90;;;;;;5086981;28;20075;-67
2022/05/11 00:26:45;;;;;;;5.03;4.13;;;14.60;99.90;;;;;;5086221;28;20106;-67
2022/05/11 00:29:11;;;;;;;6.53;4.10;;;14.70;99.90;;;;;;5086681;28;20289;-67
2022/05/11 00:31:37;;;;;;;5.22;4.25;;;14.70;99.90;;;;;;5069365;28;20048;-67
2022/05/11 00:34:03;;;;;;;7.35;4.32;;;14.60;99.90;;;;;;5085143;28;20408;-67
2022/05/11 00:36:29;;;;;;;5.70;4.00;;;14.60;99.90;;;;;;5094532;28;20041;-67
2022/05/11 00:38:54;;;;;;;8.57;4.18;;;14.70;99.90;;;;;;5086300;28;20082;-67
2022/05/11 00:41:20;;;;;;;6.32;4.57;;;14.70;99.90;;;;;;5085045;28;20098;-67
2022/05/11 00:43:57;;;;;;;6.75;4.28;;;14.70;99.90;;;;;;5087006;28;20143;-67
2022/05/11 00:46:35;;;;;;;7.95;4.20;;;14.60;99.90;;;;;;5082720;28;20043;-67
2022/05/11 00:52:00;;;;;;;7.70;3.88;;;14.50;99.90;;;;;;5088163;28;20074;-67
2022/05/11 00:54:29;;;;;;;6.07;4.13;;;14.50;99.90;;;;;;5083039;28;20083;-67
2022/05/11 00:57:00;;;;;;;6.70;3.75;;;14.40;99.90;;;;;;5079562;28;20056;-67
2022/05/11 00:59:31;;;;;;;7.90;4.88;;;14.40;99.90;;;;;;5086724;28;20039;-67
2022/05/11 01:02:03;;;;;;;8.77;4.13;;;14.50;99.90;;;;;;5068815;28;20056;-67
2022/05/11 01:04:32;;;;;;;7.43;4.55;;;14.40;99.90;;;;;;5084372;28;20047;-67
2022/05/11 01:07:01;;;;;;;7.68;4.60;;;14.70;99.90;;;;;;5084250;28;20042;-67
2022/05/11 01:09:27;;;;;;;7.43;4.28;;;14.40;99.90;;;;;;5085145;28;20101;-67
2022/05/11 01:11:57;;;;;;;8.25;4.40;;;14.40;99.90;;;;;;5085711;28;20036;-67
2022/05/11 01:14:28;;;;;;;6.45;4.20;;;14.30;99.90;;;;;;5088434;28;20048;-67
2022/05/11 01:16:55;;;;;;;9.20;4.70;;;14.30;99.90;;;;;;5085162;28;20068;-67
2022/05/11 01:19:28;;;;;;;6.75;4.50;;;14.20;99.90;;;;;;5086864;28;20041;-67
2022/05/11 01:22:03;;;;;;;9.57;4.18;;;14.10;99.90;;;;;;5085226;28;20043;-67
2022/05/11 01:24:41;;;;;;;7.60;4.40;;;14.20;99.90;;;;;;5083291;28;20068;-67
2022/05/11 01:27:27;;;;;;;7.93;5.45;;;14.20;99.90;;;;;;5086181;28;20096;-67
2022/05/11 01:29:55;;;;;;;8.50;4.57;;;14.20;99.90;;;;;;5084662;28;20053;-67
2022/05/11 01:32:23;;;;;;;7.75;4.70;;;14.20;99.90;;;;;;5082058;28;20048;-67
2022/05/11 01:34:54;;;;;;;5.57;4.55;;;14.10;99.90;;;;;;5085412;28;20079;-67
2022/05/11 01:37:20;;;;;;;8.23;5.05;;;14.20;99.90;;;;;;5087171;28;20052;-67
2022/05/11 01:39:46;;;;;;;9.70;5.40;;;14.20;99.90;;;;;;5086813;28;20041;-67
2022/05/11 01:42:12;;;;;;;8.75;4.88;;;14.20;99.90;;;;;;5083237;28;20534;-67
2022/05/11 01:44:37;;;;;;;6.90;5.25;;;14.20;99.90;;;;;;5086145;28;20420;-67
2022/05/11 01:47:03;;;;;;;9.65;5.05;;;14.20;99.90;;;;;;5083978;28;20036;-67
2022/05/11 01:49:30;;;;;;;9.90;4.95;;;14.20;99.90;;;;;;5084992;28;20110;-67
2022/05/11 01:51:56;;;;;;;6.82;4.65;;;14.20;99.90;;;;;;5082187;28;20554;-67
2022/05/11 01:54:23;;;;;;;6.18;4.50;;;14.10;99.90;;;;;;5091197;28;20044;-67
2022/05/11 01:56:49;;;;;;;8.85;4.90;;;14.10;99.90;;;;;;5085200;28;20123;-67
2022/05/11 01:59:15;;;;;;;10.60;5.38;;;14.10;99.90;;;;;;5085710;28;20049;-67
2022/05/11 02:01:41;;;;;;;6.75;4.72;;;14.10;99.90;;;;;;5093904;28;20051;-67
2022/05/11 02:07:49;;;;;;;7.68;4.75;;;14.10;99.90;;;;;;5068960;28;20044;-67
2022/05/11 02:09:41;;;;;;;13.07;5.93;;;14.10;99.90;;;;;;5083740;28;20050;-67
2022/05/11 02:12:09;;;;;;;7.45;4.95;;;14.00;99.90;;;;;;5082330;28;20500;-67
2022/05/11 02:14:35;;;;;;;7.45;5.15;;;14.00;99.90;;;;;;5085177;28;20048;-67
2022/05/11 02:17:01;;;;;;;7.28;5.43;;;14.00;99.90;;;;;;5084092;28;20044;-67
2022/05/11 02:19:29;;;;;;;9.32;5.68;;;14.00;99.90;;;;;;5083260;28;20036;-67
2022/05/11 02:21:54;;;;;;;8.20;5.43;;;14.00;99.90;;;;;;5096596;28;20119;-67
2022/05/11 02:24:20;;;;;;;12.55;5.55;;;14.20;99.90;;;;;;5082433;28;20052;-67
2022/05/11 02:26:46;;;;;;;8.98;5.35;;;14.10;99.90;;;;;;5083262;28;20040;-67
2022/05/11 02:29:11;;;;;;;8.65;5.43;;;14.00;99.90;;;;;;5083068;28;20067;-67
2022/05/11 02:31:37;;;;;;;6.97;4.78;;;14.10;99.90;;;;;;5084026;28;20047;-67
2022/05/11 02:34:05;;;;;;;9.38;5.50;;;14.20;99.90;;;;;;5097441;28;20094;-67
2022/05/11 02:36:32;;;;;;;7.45;5.30;;;14.10;99.90;;;;;;5084129;28;20204;-67
2022/05/11 02:38:58;;;;;;;9.50;5.22;;;14.10;99.90;;;;;;5084036;28;20108;-67
2022/05/11 02:41:23;;;;;;;8.90;5.80;;;14.20;99.90;;;;;;5083773;28;20044;-67
2022/05/11 02:43:49;;;;;;;10.15;6.18;;;14.00;99.90;;;;;;5081695;28;20090;-67
2022/05/11 02:46:15;;;;;;;10.55;5.70;;;14.00;99.90;;;;;;5088305;28;20135;-67
2022/05/11 02:48:41;;;;;;;9.15;5.55;;;14.00;99.90;;;;;;5082857;28;20044;-67
2022/05/11 02:51:07;;;;;;;8.30;5.43;;;14.00;99.90;;;;;;5078544;28;20076;-67
2022/05/11 02:53:33;;;;;;;11.98;6.22;;;13.90;99.90;;;;;;5084683;28;20048;-67
2022/05/11 02:56:00;;;;;;;8.75;5.60;;;14.00;99.90;;;;;;5087696;28;20044;-67
2022/05/11 02:58:31;;;;;;;7.43;5.38;;;13.90;99.90;;;;;;5084551;28;20044;-67
2022/05/11 03:00:59;;;;;;;9.18;5.70;;;13.90;99.90;;;;;;5046652;28;20043;-67
2022/05/11 03:03:25;;;;;;;8.88;5.78;;;13.90;99.90;;;;;;5080540;28;20048;-67
2022/05/11 03:05:52;;;;;;;8.98;5.53;;;13.90;99.90;;;;;;5087682;28;20097;-67
2022/05/11 03:08:19;;;;;;;12.18;5.63;;;13.80;99.90;;;;;;5085069;28;20082;-67
2022/05/11 03:10:45;;;;;;;7.50;5.53;;;13.90;99.90;;;;;;5084756;28;20087;-67
2022/05/11 03:13:10;;;;;;;8.95;5.30;;;13.80;99.90;;;;;;5085466;28;20044;-67
2022/05/11 03:15:36;;;;;;;7.78;5.28;;;13.90;99.90;;;;;;5082968;28;20036;-67
2022/05/11 03:18:03;;;;;;;8.95;5.50;;;13.80;99.90;;;;;;5082026;28;20091;-67
2022/05/11 03:20:29;;;;;;;7.72;5.47;;;14.00;99.90;;;;;;5084103;28;20088;-67
2022/05/11 03:22:55;;;;;;;9.07;5.05;;;13.90;99.90;;;;;;5083127;28;20055;-67
2022/05/11 03:25:22;;;;;;;7.10;5.03;;;13.90;99.90;;;;;;5076315;28;20091;-67
2022/05/11 03:27:49;;;;;;;7.38;5.03;;;13.90;99.90;;;;;;5079690;28;20049;-67
2022/05/11 03:30:16;;;;;;;7.78;4.70;;;14.00;99.90;;;;;;5083513;28;20135;-67
2022/05/11 03:35:27;;;;;;;7.93;5.10;;;13.90;99.90;;;;;;5079090;28;20467;-67
2022/05/11 03:37:52;;;;;;;8.07;5.20;;;14.00;99.90;;;;;;5078836;28;20045;-67
2022/05/11 03:40:18;;;;;;;10.98;6.45;;;13.90;99.90;;;;;;5083873;28;20048;-67
2022/05/11 03:42:44;;;;;;;7.80;4.90;;;13.90;99.90;;;;;;5080478;28;20748;-67
2022/05/11 03:45:13;;;;;;;8.75;5.38;;;13.80;99.90;;;;;;5095830;28;20055;-67
2022/05/11 03:47:39;;;;;;;6.28;4.75;;;13.90;99.90;;;;;;5080855;28;20051;-67
2022/05/11 03:50:06;;;;;;;9.85;5.28;;;13.90;99.90;;;;;;5080424;28;20088;-67
2022/05/11 03:52:32;;;;;;;9.23;5.25;;;13.90;99.90;;;;;;5078042;28;20041;-67
2022/05/11 03:54:58;;;;;;;9.13;5.10;;;13.90;99.90;;;;;;5078941;28;20079;-67
2022/05/11 03:57:24;;;;;;;7.93;5.75;;;13.90;99.90;;;;;;5082213;28;20040;-67
2022/05/11 03:59:49;;;;;;;8.90;4.95;;;13.90;99.90;;;;;;5079615;28;20032;-67
2022/05/11 04:02:15;;;;;;;7.85;4.90;;;14.00;99.90;;;;;;5062832;28;20033;-67
2022/05/11 04:04:41;;;;;;;9.10;5.35;;;14.00;99.90;;;;;;5083787;28;20044;-67
2022/05/11 04:07:06;;;;;;;11.95;5.55;;;14.00;99.90;;;;;;5083280;28;20044;-67
2022/05/11 04:09:32;;;;;;;9.32;5.63;;;14.00;99.90;;;;;;5081120;28;20052;-66
2022/05/11 04:11:58;;;;;;;8.57;5.88;;;14.00;99.90;;;;;;5082052;28;20044;-67
2022/05/11 04:14:23;;;;;;;10.32;6.00;;;13.90;99.90;;;;;;5081862;28;20083;-67
2022/05/11 04:16:58;;;;;;;9.95;5.32;;;14.00;99.90;;;;;;5080832;28;20496;-67
2022/05/11 04:19:25;;;;;;;11.13;5.82;;;14.00;99.90;;;;;;5083858;28;20083;-66
2022/05/11 04:21:51;;;;;;;9.05;5.32;;;13.90;99.90;;;;;;5081810;28;20041;-67
2022/05/11 04:24:16;;;;;;;8.68;4.95;;;13.90;99.90;;;;;;5083506;28;20145;-67
2022/05/11 04:26:42;;;;;;;9.52;5.85;;;13.90;99.90;;;;;;5084754;28;20043;-67
2022/05/11 04:29:08;;;;;;;8.30;5.40;;;14.00;99.90;;;;;;5082079;28;20053;-67
2022/05/11 04:31:33;;;;;;;10.35;5.28;;;14.00;99.90;;;;;;5080742;28;20044;-67
2022/05/11 04:33:59;;;;;;;8.30;5.60;;;13.90;99.90;;;;;;5096849;28;20444;-67
2022/05/11 04:36:25;;;;;;;8.90;5.32;;;14.00;99.90;;;;;;5080601;28;20045;-67
2022/05/11 04:38:50;;;;;;;9.88;5.60;;;13.90;99.90;;;;;;5081828;28;20041;-66
2022/05/11 04:41:16;;;;;;;9.77;5.88;;;14.20;99.90;;;;;;5083370;28;20044;-67
2022/05/11 04:43:42;;;;;;;9.98;5.25;;;14.00;99.90;;;;;;5084269;28;20060;-67
2022/05/11 04:46:08;;;;;;;11.65;5.90;;;14.10;99.90;;;;;;5085681;28;20400;-66
2022/05/11 04:48:34;;;;;;;10.23;5.57;;;14.00;99.90;;;;;;5086595;28;20044;-67
2022/05/11 04:51:02;;;;;;;12.23;5.82;;;14.00;99.90;;;;;;5087584;28;20072;-66
2022/05/11 04:53:28;;;;;;;10.98;5.93;;;14.00;99.90;;;;;;5084122;28;20048;-67
2022/05/11 04:55:54;;;;;;;12.32;6.30;;;14.10;99.90;;;;;;5066007;28;20059;-66
2022/05/11 04:58:19;;;;;;;9.10;6.03;;;14.00;99.90;;;;;;5081578;28;20048;-66
2022/05/11 05:00:45;;;;;;;9.38;5.28;;;14.10;99.90;;;;;;5088925;28;20046;-67
2022/05/11 05:03:12;;;;;;;9.38;5.22;;;14.00;99.90;;;;;;5087970;28;20051;-67
2022/05/11 05:05:39;;;;;;;13.13;5.82;;;14.00;99.90;;;;;;5085889;28;20068;-67
2022/05/11 05:08:05;;;;;;;10.38;5.50;;;14.00;99.90;;;;;;5055539;28;20063;-67
2022/05/11 05:10:31;;;;;;;9.25;5.60;;;14.00;99.90;;;;;;5085276;28;20127;-67
2022/05/11 05:13:06;;;;;;;8.52;5.40;;;14.10;99.90;;;;;;5082800;28;20051;-67
2022/05/11 05:15:34;;;;;;;11.70;8.90;;;13.90;99.90;;;;;;5020263;28;20168;-64
2022/05/11 05:18:01;;;;;;;9.35;5.78;;;14.00;99.90;;;;;;5067318;28;20080;-64
2022/05/11 05:20:28;;;;;;;11.00;5.47;;;14.20;99.90;;;;;;5068719;28;20044;-64
2022/05/11 05:22:53;;;;;;;10.90;6.47;;;14.00;99.90;;;;;;5053513;28;20086;-64
2022/05/11 05:25:19;;;;;;;11.07;5.88;;;14.10;99.90;;;;;;5071807;28;20064;-64
2022/05/11 05:27:45;;;;;;;15.15;5.82;;;14.30;99.90;;;;;;5086807;28;20381;-64
2022/05/11 05:32:55;;;;;;;11.30;6.55;;;14.10;99.90;;;;;;5076291;28;20040;-64
2022/05/11 05:35:21;;;;;;;10.57;6.43;;;14.10;99.90;;;;;;5071719;28;20048;-65
2022/05/11 05:37:47;;;;;;;11.13;6.55;;;14.30;99.90;;;;;;5080951;28;20036;-66
2022/05/11 05:40:13;;;;;;;12.25;6.90;;;14.40;99.90;;;;;;5055886;28;20052;-67
2022/05/11 05:42:40;;;;;;;13.32;6.50;;;14.60;99.90;;;;;;5044350;28;20053;-66
2022/05/11 05:45:07;;;;;;;14.45;7.43;;;14.40;99.90;;;;;;5073916;28;20052;-66
2022/05/11 05:47:33;;;;;;;11.35;7.28;;;14.50;99.90;;;;;;5076875;28;20417;-66
2022/05/11 05:49:59;;;;;;;13.95;7.22;;;14.50;99.90;;;;;;5068768;28;20044;-66
2022/05/11 05:52:26;;;;;;;8.18;7.18;;;14.60;99.90;;;;;;5066350;28;20183;-66
2022/05/11 05:54:54;;;;;;;10.85;7.40;;;14.50;99.90;;;;;;5080170;28;20041;-68
2022/05/11 05:57:20;;;;;;;13.80;7.50;;;14.70;99.90;;;;;;5068314;28;20072;-68
2022/05/11 05:59:46;;;;;;;14.05;8.43;;;14.60;99.90;;;;;;5075889;28;20037;-68
2022/05/11 06:02:13;;;;;;;12.60;7.97;;;14.70;99.90;;;;;;5067171;28;20091;-68
2022/05/11 06:04:40;;;;;;;13.85;8.35;;;14.70;99.90;;;;;;5079790;28;20040;-68
2022/05/11 06:07:07;;;;;;;12.88;8.63;;;14.70;99.90;;;;;;5083774;28;20511;-68
2022/05/11 06:09:32;;;;;;;14.27;9.25;;;14.70;99.90;;;;;;5078224;28;20044;-66
2022/05/11 06:11:58;;;;;;;17.25;9.40;;;14.80;99.90;;;;;;5078179;28;20284;-66
2022/05/11 06:14:24;;;;;;;14.82;9.90;;;14.90;99.90;;;;;;5069152;28;20040;-67
2022/05/11 06:16:50;;;;;;;14.63;8.77;;;14.90;99.90;;;;;;5079807;28;20048;-67
2022/05/11 06:19:16;;;;;;;15.98;9.25;;;14.90;99.90;;;;;;5058519;28;20287;-67
2022/05/11 06:21:43;;;;;;;16.50;9.35;;;15.00;99.90;;;;;;5069225;28;20051;-67
2022/05/11 06:24:09;;;;;;;16.80;9.02;;;14.90;99.90;;;;;;5073818;28;20067;-63
2022/05/11 06:26:35;;;;;;;15.52;9.45;;;15.00;99.90;;;;;;5069233;28;20052;-63
2022/05/11 06:29:04;;;;;;;15.20;9.25;;;15.10;99.90;;;;;;5080051;28;20044;-63
2022/05/11 06:31:31;;;;;;;12.85;7.70;;;15.10;99.90;;;;;;5069339;28;20079;-63
2022/05/11 06:33:56;;;;;;;13.13;8.00;;;15.10;99.90;;;;;;5079226;28;20102;-63
2022/05/11 06:36:23;;;;;;;12.57;6.40;;;15.20;99.90;;;;;;5067236;28;20520;-63
2022/05/11 06:38:50;;;;;;;11.43;7.38;;;15.10;99.90;;;;;;5085603;28;20102;-64
2022/05/11 06:41:19;;;;;;;10.05;6.20;;;15.10;99.90;;;;;;5076722;28;20694;-63
2022/05/11 06:43:46;;;;;;;14.98;7.07;;;15.20;99.90;;;;;;5083585;28;20052;-63
2022/05/11 06:46:12;;;;;;;12.38;6.03;;;15.30;99.90;;;;;;5073611;28;20412;-64
2022/05/11 06:48:38;;;;;;;14.80;5.72;;;15.30;99.90;;;;;;5068525;28;20068;-64
2022/05/11 06:51:04;;;;;;;12.13;5.82;;;15.40;99.90;;;;;;5066294;28;20047;-64
2022/05/11 06:59:18;;;;;;;13.50;6.28;;;15.40;99.90;;;;;;5069674;28;20079;-64
2022/05/11 07:01:44;;;;;;;8.90;4.68;;;15.50;99.90;;;;;;5075749;28;20055;-65
2022/05/11 07:04:11;;;;;;;8.68;4.90;;;15.60;99.90;;;;;;5082259;28;20420;-65
2022/05/11 07:06:37;;;;;;;8.95;5.10;;;15.60;99.90;;;;;;5066145;28;20063;-64
2022/05/11 07:09:03;;;;;;;9.35;4.75;;;15.60;99.90;;;;;;5059730;28;20048;-65
2022/05/11 07:14:13;;;;;;;11.50;4.50;;;15.80;99.90;;;;;;5071570;28;20114;-65
2022/05/11 07:16:39;;;;;;;9.93;4.53;;;15.70;99.90;;;;;;5071562;28;20421;-65
2022/05/11 07:19:05;;;;;;;7.95;4.63;;;15.80;99.90;;;;;;5078581;28;20041;-64
2022/05/11 07:21:31;;;;;;;9.20;4.10;;;15.90;99.90;;;;;;5071687;28;20077;-65
2022/05/11 07:23:56;;;;;;;11.10;4.65;;;15.70;99.90;;;;;;5085863;28;20133;-64
2022/05/11 07:26:22;;;;;;;9.13;4.38;;;15.90;99.90;;;;;;5062127;28;20047;-64
2022/05/11 07:28:48;;;;;;;8.07;3.78;;;15.80;99.90;;;;;;5078003;28;20059;-64
2022/05/11 07:31:13;;;;;;;8.95;3.92;;;15.90;99.90;;;;;;5056717;28;20041;-64
2022/05/11 07:33:39;;;;;;;8.32;3.65;;;16.00;99.90;;;;;;5040504;28;20872;-64
2022/05/11 07:36:05;;;;;;;8.43;4.80;;;16.10;99.90;;;;;;5068260;28;20064;-64
2022/05/11 07:38:32;;;;;;;8.35;3.58;;;16.10;99.90;;;;;;5072221;28;20107;-64
2022/05/11 07:40:58;;;;;;;10.55;3.83;;;16.00;99.90;;;;;;5065528;28;20146;-64
2022/05/11 07:43:23;;;;;;;6.55;3.40;;;16.10;99.90;;;;;;5078580;28;20088;-64
2022/05/11 07:45:49;;;;;;;13.25;4.00;;;16.00;99.90;;;;;;5063675;28;20041;-64
2022/05/11 07:48:19;;;;;;;9.35;3.58;;;16.00;99.90;;;;;;5066712;28;20083;-64
2022/05/11 07:50:44;;;;;;;7.35;3.60;;;16.00;99.90;;;;;;5075327;28;20294;-64
2022/05/11 07:53:10;;;;;;;7.78;3.60;;;16.10;99.90;;;;;;5069074;28;20567;-64
2022/05/11 07:55:36;;;;;;;16.95;5.07;;;16.20;99.90;;;;;;5068828;28;20099;-64
2022/05/11 08:00:46;;;;;;;9.98;3.42;;;16.60;99.90;;;;;;5079658;28;20068;-64
2022/05/11 08:03:12;;;;;;;11.85;3.72;;;16.70;99.90;;;;;;5076972;28;20048;-64
2022/05/11 08:05:38;;;;;;;13.45;3.83;;;16.60;99.90;;;;;;5078559;28;20074;-64
2022/05/11 08:08:07;;;;;;;11.32;3.20;;;16.60;99.90;;;;;;5063399;28;20060;-64
2022/05/11 08:10:36;;;;;;;14.15;3.25;;;16.60;99.90;;;;;;5068170;28;20037;-65
2022/05/11 08:13:05;;;;;;;12.20;3.40;;;16.60;99.90;;;;;;5068118;28;20205;-64
2022/05/11 08:15:32;;;;;;;8.38;2.92;;;16.70;99.90;;;;;;5059888;28;20057;-65
2022/05/11 08:17:59;;;;;;;10.07;3.47;;;16.50;99.90;;;;;;5069666;28;20052;-64
2022/05/11 08:20:29;;;;;;;7.82;2.90;;;16.50;99.90;;;;;;5077993;28;20052;-65
2022/05/11 08:22:55;;;;;;;8.45;3.33;;;16.80;99.90;;;;;;5070145;28;20056;-64
2022/05/11 08:25:25;;;;;;;7.88;3.25;;;16.90;99.90;;;;;;5078078;28;20036;-65
2022/05/11 08:27:52;;;;;;;9.23;3.30;;;17.10;99.90;;;;;;5072291;28;20090;-65
2022/05/11 08:33:24;;;;;;;6.32;2.80;;;17.30;99.90;;;;;;5076895;28;20074;-64
2022/05/11 08:35:52;;;;;;;7.07;2.63;;;17.40;99.90;;;;;;5091322;28;20040;-64
2022/05/11 08:38:20;;;;;;;8.65;3.03;;;17.40;99.90;;;;;;5076264;28;20137;-64
2022/05/11 08:41:14;;;;;;;14.10;4.10;;;17.50;99.90;;;;;;5073434;28;20563;-64
2022/05/11 08:43:41;;;;;;;7.97;2.80;;;17.50;99.90;;;;;;5067418;28;20047;-64
2022/05/11 08:46:14;;;;;;;9.27;3.58;;;17.50;99.90;;;;;;5074291;28;20480;-64
2022/05/11 08:49:00;;;;;;;12.07;3.05;;;17.70;99.90;;;;;;5069761;28;20384;-65
2022/05/11 08:51:46;;;;;;;16.67;3.22;;;17.90;99.90;;;;;;5090287;28;20139;-65
2022/05/11 08:54:19;;;;;;;6.65;2.60;;;18.00;99.90;;;;;;5063112;28;20056;-64
2022/05/11 08:56:47;;;;;;;15.90;3.40;;;17.80;99.90;;;;;;5075180;28;20047;-64
2022/05/11 08:59:28;;;;;;;8.02;3.08;;;17.90;99.90;;;;;;5097316;28;20066;-65
2022/05/11 09:01:59;;;;;;;8.88;3.13;;;17.90;99.90;;;;;;5074649;28;20042;-65
2022/05/11 09:04:46;;;;;;;6.85;2.58;;;18.20;99.90;;;;;;5075555;28;20060;-65
2022/05/11 09:07:12;;;;;;;9.18;2.80;;;18.40;99.90;;;;;;5076451;28;20056;-66
2022/05/11 09:09:39;;;;;;;8.13;2.85;;;18.40;99.90;;;;;;5077066;28;20076;-64
2022/05/11 09:12:06;;;;;;;8.95;3.30;;;18.40;99.90;;;;;;5075912;28;20139;-64
2022/05/11 09:14:40;;;;;;;7.65;3.08;;;18.30;99.90;;;;;;5061091;28;20060;-64
2022/05/11 09:17:28;;;;;;;10.45;3.08;;;18.10;99.90;;;;;;5066568;28;20071;-65
2022/05/11 09:20:12;;;;;;;10.52;2.95;;;18.20;99.90;;;;;;5063505;28;20444;-65
2022/05/11 09:22:41;;;;;;;11.20;2.92;;;18.10;99.90;;;;;;5063055;28;20064;-65
2022/05/11 09:25:18;;;;;;;;;;;18.20;99.90;;;;;;5078993;28;20049;-65
2022/05/11 09:27:44;;;;;;;11.65;3.05;;;18.20;99.90;;;;;;5065770;28;20330;-65
2022/05/11 09:30:16;;;;;;;7.72;3.15;;;18.20;99.90;;;;;;5062301;28;20116;-64
2022/05/11 09:32:44;;;;;;;10.48;3.55;;;18.30;99.90;;;;;;5065017;28;20409;-64
2022/05/11 09:35:31;;;;;;;10.57;3.42;;;18.50;99.90;;;;;;5065432;28;20066;-65
2022/05/11 09:38:01;;;;;;;11.68;3.35;;;18.30;99.90;;;;;;5056662;28;20074;-65
2022/05/11 09:40:27;;;;;;;;;;;18.40;99.90;;;;;;5067727;28;20165;-65
2022/05/11 09:42:55;;;;;;;8.88;3.00;;;18.60;99.90;;;;;;5067776;28;20178;-64
2022/05/11 09:45:47;;;;;;;11.20;3.17;;;18.40;99.90;;;;;;5073834;28;20041;-64
2022/05/11 09:48:18;;;;;;;10.00;2.80;;;18.40;99.90;;;;;;5068476;28;20155;-64
2022/05/11 09:50:45;;;;;;;13.50;3.78;;;18.40;99.90;;;;;;5080117;28;20045;-64
2022/05/11 09:53:23;;;;;;;8.18;3.10;;;18.40;99.90;;;;;;5065274;28;20051;-64
2022/05/11 09:55:50;;;;;;;13.57;2.92;;;18.40;99.90;;;;;;5058039;28;20032;-64
2022/05/11 09:58:30;;;;;;;10.45;2.50;;;18.80;99.90;;;;;;5057497;28;20049;-64
2022/05/11 10:01:12;;;;;;;11.20;3.10;;;18.90;99.90;;;;;;5068908;28;20503;-64
2022/05/11 10:03:47;;;;;;;6.65;2.22;;;19.10;99.90;;;;;;5072009;28;20036;-64
2022/05/11 10:06:15;;;;;;;10.82;3.15;;;19.30;99.90;;;;;;5080743;28;20044;-63
2022/05/11 10:08:43;;;;;;;9.35;3.08;;;19.10;99.90;;;;;;5064635;28;20078;-64
2022/05/11 10:11:19;;;;;;;6.78;2.28;;;19.20;99.90;;;;;;5076396;28;20091;-64
2022/05/11 10:13:54;;;;;;;9.57;3.42;;;19.30;99.90;;;;;;5076378;28;20047;-64
2022/05/11 10:22:25;;;;;;;8.13;2.40;;;19.40;99.90;;;;;;5071762;28;20059;-64
2022/05/11 10:24:54;;;;;;;8.30;2.25;;;19.30;99.90;;;;;;5059219;28;20072;-64
2022/05/11 10:27:46;;;;;;;8.10;2.40;;;19.30;99.90;;;;;;5064274;28;20164;-64
2022/05/11 10:30:25;;;;;;;6.32;2.20;;;19.30;99.90;;;;;;5059130;28;20048;-64
2022/05/11 10:33:10;;;;;;;8.07;2.20;;;19.10;99.90;;;;;;5068303;28;20084;-64
2022/05/11 10:35:54;;;;;;;6.90;2.47;;;19.10;99.90;;;;;;5071671;28;20064;-65
2022/05/11 10:38:47;;;;;;;6.53;2.15;;;19.10;99.90;;;;;;5070928;28;20170;-65
2022/05/11 10:41:28;;;;;;;5.35;2.33;;;19.30;99.90;;;;;;5086408;28;20264;-64
2022/05/11 10:44:30;;;;;;;8.10;2.38;;;19.40;99.90;;;;;;5061574;28;20104;-64
2022/05/11 10:47:35;;;;;;;7.65;2.22;;;19.50;99.90;;;;;;5081390;28;20109;-64
2022/05/11 10:50:14;;;;;;;6.63;2.15;;;19.20;99.90;;;;;;5058209;28;20052;-66
2022/05/11 10:52:47;;;;;;;4.75;2.10;;;19.40;99.90;;;;;;5077994;28;20043;-67
2022/05/11 10:55:39;;;;;;;7.18;2.50;;;19.20;99.90;;;;;;5065192;28;20134;-66
2022/05/11 10:58:23;;;;;;;12.07;2.60;;;19.30;99.90;;;;;;5057448;28;20068;-66
2022/05/11 11:01:00;;;;;;;7.32;2.00;;;19.50;99.90;;;;;;5066748;28;20047;-66
2022/05/11 11:03:53;;;;;;;8.43;2.85;;;19.30;99.90;;;;;;5069111;28;20084;-66
2022/05/11 11:09:52;;;;;;;6.57;2.90;;;19.60;99.90;;;;;;5070027;28;20048;-66
2022/05/11 11:12:48;;;;;;;7.22;2.35;;;19.80;99.90;;;;;;5085653;28;20152;-66
2022/05/11 11:15:17;;;;;;;7.82;2.15;;;20.00;99.90;;;;;;5069415;28;20056;-66
2022/05/11 11:17:44;;;;;;;60.42;5.85;;;20.00;99.90;;;;;;5076804;28;20051;-66
2022/05/11 11:20:12;;;;;;;121.45;9.45;;;20.00;99.90;;;;;;5084840;28;20072;-66
2022/05/11 11:23:00;;;;;;;7.88;2.35;;;20.20;99.90;;;;;;5072109;28;20111;-65
2022/05/11 11:25:27;;;;;;;5.05;1.98;;;20.30;99.90;;;;;;5056854;28;20048;-66
2022/05/11 11:28:14;;;;;;;11.75;2.75;;;20.50;99.90;;;;;;5062264;28;20041;-66
2022/05/11 11:30:52;;;;;;;16.30;2.50;;;20.30;99.90;;;;;;5065592;28;20131;-66
2022/05/11 11:33:23;;;;;;;18.58;2.58;;;20.40;99.90;;;;;;5074393;28;20053;-66
2022/05/11 11:36:01;;;;;;;8.40;2.35;;;20.30;99.90;;;;;;5074167;28;20094;-67
2022/05/11 11:38:39;;;;;;;5.85;2.00;;;20.00;99.90;;;;;;5074175;28;20071;-66
2022/05/11 11:41:19;;;;;;;6.60;2.92;;;20.30;99.90;;;;;;5069033;28;20052;-66
2022/05/11 11:44:03;;;;;;;8.68;2.17;;;20.30;99.90;;;;;;5075010;28;20068;-66
2022/05/11 11:46:40;;;;;;;9.15;2.35;;;20.30;99.90;;;;;;5078291;28;20063;-67
2022/05/11 11:49:09;;;;;;;7.45;2.70;;;20.20;99.90;;;;;;5070471;28;20123;-66
2022/05/11 11:51:50;;;;;;;;;;;20.10;99.90;;;;;;5066207;28;20060;-67
2022/05/11 11:54:38;;;;;;;9.27;2.25;;;20.40;99.90;;;;;;5092865;28;19920;-67
2022/05/11 11:57:25;;;;;;;10.70;2.22;;;20.30;99.90;;;;;;5050123;28;20098;-66
2022/05/11 12:00:20;;;;;;;8.93;2.50;;;20.60;99.90;;;;;;5054734;28;20060;-66
2022/05/11 12:02:47;;;;;;;20.02;3.17;;;20.70;99.90;;;;;;5077631;28;20060;-67
2022/05/11 12:05:27;;;;;;;13.57;3.33;;;20.90;99.90;;;;;;5060731;28;20923;-68
2022/05/11 12:16:44;;;;;;;9.05;2.83;;;20.80;99.90;;;;;;5053818;28;20047;-65
2022/05/11 12:19:12;;;;;;;8.13;2.90;;;20.70;99.90;;;;;;5075196;28;20055;-65
2022/05/11 12:21:40;;;;;;;4.70;2.10;;;20.70;99.90;;;;;;5034272;28;20041;-65
2022/05/11 12:24:17;;;;;;;7.80;2.38;;;20.80;99.90;;;;;;5047005;28;20048;-66
2022/05/11 12:26:54;;;;;;;26.42;3.65;;;21.00;99.90;;;;;;5044412;28;20049;-66
2022/05/11 12:32:07;;;;;;;7.43;2.25;;;21.00;99.90;;;;;;5043753;28;20583;-66
2022/05/11 12:34:41;;;;;;;8.80;2.60;;;20.80;99.90;;;;;;5042203;28;20266;-66
2022/05/11 12:37:27;;;;;;;14.15;3.03;;;20.80;99.90;;;;;;5040596;28;20049;-66
2022/05/11 12:40:05;;;;;;;10.02;2.92;;;20.80;99.90;;;;;;5037640;28;20033;-66
2022/05/11 12:42:34;;;;;;;10.13;2.70;;;20.90;99.90;;;;;;5044092;28;20268;-66
2022/05/11 12:45:00;;;;;;;9.05;2.83;;;21.10;99.90;;;;;;5050595;28;20064;-66
2022/05/11 12:47:27;;;;;;;5.75;2.80;;;21.30;99.50;;;;;;5047733;28;20068;-67
2022/05/11 12:49:53;;;;;;;9.95;3.30;;;21.20;98.80;;;;;;5052580;28;20063;-66
2022/05/11 12:52:25;;;;;;;12.55;2.88;;;21.40;99.90;;;;;;5046099;28;20444;-66
2022/05/11 12:55:01;;;;;;;9.13;2.83;;;21.30;99.60;;;;;;5053314;28;20049;-67
2022/05/11 12:57:42;;;;;;;5.65;2.22;;;21.40;98.10;;;;;;5052066;28;20044;-66
2022/05/11 13:00:17;;;;;;;108.85;11.15;;;21.50;98.50;;;;;;5053281;28;20041;-66
2022/05/11 13:02:44;;;;;;;26.45;4.68;;;21.60;97.00;;;;;;5061259;28;20048;-66
2022/05/11 13:05:15;;;;;;;14.88;4.03;;;21.70;98.00;;;;;;5037258;28;20402;-66
2022/05/11 13:08:03;;;;;;;8.45;2.85;;;21.60;97.80;;;;;;5054274;28;20061;-64
2022/05/11 13:10:38;;;;;;;27.17;3.85;;;21.60;97.50;;;;;;5068281;28;20050;-64
2022/05/11 13:13:11;;;;;;;13.35;3.50;;;22.00;97.90;;;;;;5047443;28;20183;-64
2022/05/11 13:15:43;;;;;;;9.65;2.80;;;22.00;97.90;;;;;;5058557;28;20048;-64
2022/05/11 13:18:13;;;;;;;4.95;2.25;;;21.70;98.00;;;;;;5045530;28;20077;-64
2022/05/11 13:20:42;;;;;;;6.20;2.65;;;21.90;98.20;;;;;;5051650;28;20091;-65
2022/05/11 13:23:27;;;;;;;16.65;3.30;;;21.80;95.80;;;;;;5050459;28;20119;-64
2022/05/11 13:25:55;;;;;;;11.10;2.78;;;22.10;96.10;;;;;;5055446;28;20134;-65
2022/05/11 13:28:23;;;;;;;10.45;2.50;;;22.40;97.10;;;;;;5063896;28;20170;-64
2022/05/11 13:30:53;;;;;;;9.88;3.20;;;22.40;97.40;;;;;;5055857;28;20184;-65
2022/05/11 13:33:26;;;;;;;;;;;22.80;96.00;;;;;;5058244;28;20064;-66
2022/05/11 13:36:26;;;;;;;12.45;3.15;;;23.00;96.10;;;;;;5053898;28;19921;-68
2022/05/11 13:38:51;;;;;;;28.85;4.38;;;23.30;92.40;;;;;;4969325;28;20067;-64
2022/05/11 13:41:40;;;;;;;11.65;3.33;;;23.90;92.50;;;;;;4999747;28;20065;-64
2022/05/11 13:44:21;;;;;;;8.93;2.83;;;23.90;90.30;;;;;;5007454;28;20049;-64
2022/05/11 13:49:35;;;;;;;207.70;16.23;;;24.40;90.10;;;;;;4984826;28;20144;-65